This is the latest recevied weather packets stored in our database for station/object OH6NMY. If no packets are shown the sender has not sent any weather packets the latest 10 day(s).
| Time | Temp. | Humidity | Pressure | Rain* | Wind** | Luminosity | Snow |
|---|---|---|---|---|---|---|---|
| 1777400614 | 2.78° C | 50% | 1025 hPa | 0 mm | - | - | - |
| 1777399534 | 3.33° C | 48% | 1025.2 hPa | 0 mm | - | - | - |
| 1777394673 | 4.44° C | 43% | 1024.7 hPa | 0 mm | - | - | - |
| 1777393184 | 4.44° C | 43% | 1024.6 hPa | 0 mm | - | - | - |
| 1777386573 | 4.44° C | 47% | 1024.5 hPa | 0 mm | - | - | - |
| 1777385493 | 4.44° C | 47% | 1024.5 hPa | 0 mm | - | - | - |
| 1777383333 | 4.44° C | 46% | 1024.6 hPa | 0 mm | - | - | - |
| 1777382793 | 3.33° C | 48% | 1024.5 hPa | 0 mm | - | - | - |
| 1777376313 | 4.44° C | 47% | 1023.8 hPa | 0 mm | - | - | - |
| 1777373614 | 3.89° C | 45% | 1023.6 hPa | 0 mm | - | - | - |
| 1777371453 | 4.44° C | 46% | 1023.5 hPa | 0 mm | - | - | - |
| 1777371045 | 4.44° C | 46% | 1023.6 hPa | 0 mm | - | - | - |
| 1777365514 | 3.33° C | 52% | 1023.3 hPa | 0 mm | - | - | - |
| 1777365105 | 2.78° C | 52% | 1023.1 hPa | 0 mm | - | - | - |
| 1777359573 | 2.78° C | 57% | 1022.8 hPa | 0 mm | - | - | - |
| 1777358494 | 2.22° C | 60% | 1022.9 hPa | 0 mm | - | - | - |
| 1777348773 | 0° C | 72% | 1022.2 hPa | 0 mm | - | - | - |
| 1777347693 | -0.56° C | 73% | 1022.3 hPa | 0 mm | - | - | - |
| 1777347153 | -0.56° C | 73% | 1022 hPa | 0 mm | - | - | - |
| 1777346614 | -0.56° C | 73% | 1022 hPa | 0 mm | - | - | - |
| 1777346073 | -0.56° C | 73% | 1021.9 hPa | 0 mm | - | - | - |
| 1777342834 | -1.11° C | 75% | 1022.2 hPa | 0 mm | - | - | - |
| 1777340133 | -0.56° C | 75% | 1021.9 hPa | 0 mm | - | - | - |
| 1777335274 | -0.56° C | 75% | 1021.5 hPa | 0 mm | - | - | - |
| 1777331493 | -0.56° C | 75% | 1021.1 hPa | 0 mm | - | - | - |
* Rain latest hour (hover to see other rain measurements)
** Current wind speed in m/s (hover to see current wind gust speed)